Terminal Aerodrome Forecast
Issued by NWS Sioux Falls, SD

Home | Current Version | Previous Version | Graphics & Text | Print | Product List | Glossary Off
Versions: 1 2 3 4 5 6 7 8 9 10 11 12 13 14 15 16 17 18 19 20 21 22 23 24 25

000
FTUS43 KFSD 202321
TAFSUX
TAF
KSUX 202321Z 2100/2124 17017G26KT P6SM BKN050
     FM210800 17017G26KT P6SM VCTS BKN035CB
     FM211000 16016G24KT P6SM VCSH BKN015
     FM211600 23014G21KT P6SM -SHRA VCTS OVC020CB
     FM211900 28015G24KT P6SM VCSH BKN040
     FM212100 31016G24KT P6SM BKN050=

USA.gov is the U.S. government's official web portal to all federal, state and local government web resources and services.